Time;durP1;ratioP1;P1;durP2;ratioP2;P2;SDS_P1;SDS_P2;PMS_P1;PMS_P2;Temp;Humidity;BMP_temperature;BMP_pressure;BME280_temperature;BME280_humidity;BME280_pressure;Samples;Min_cycle;Max_cycle;Signal;HPM_P1;HPM_P2
2023/05/03 00:01:08;;;;;;;2.30;1.10;;;;;;;15.38;42.99;99576.41;4826572;29;20182;-85
2023/05/03 00:03:36;;;;;;;5.30;1.20;;;;;;;15.42;42.99;99569.13;4826527;29;20297;-85
2023/05/03 00:06:14;;;;;;;2.97;1.30;;;;;;;15.44;42.89;99575.16;4826188;29;20174;-85
2023/05/03 00:08:39;;;;;;;3.33;1.30;;;;;;;15.50;42.78;99571.31;4825971;29;20222;-85
2023/05/03 00:11:05;;;;;;;3.90;1.60;;;;;;;15.50;42.68;99569.50;4809936;29;20286;-85
2023/05/03 00:13:31;;;;;;;3.23;1.20;;;;;;;15.50;42.84;99577.44;4830799;29;20194;-85
2023/05/03 00:15:56;;;;;;;4.70;1.20;;;;;;;15.55;42.91;99571.84;4844182;29;20190;-85
2023/05/03 00:18:22;;;;;;;5.57;1.30;;;;;;;15.54;42.60;99578.91;4844153;29;20190;-85
2023/05/03 00:20:49;;;;;;;3.73;1.33;;;;;;;15.52;43.19;99574.69;4844091;29;20183;-85
2023/05/03 00:23:14;;;;;;;3.20;1.37;;;;;;;15.51;43.37;99573.00;4844367;29;20213;-85
2023/05/03 00:25:40;;;;;;;2.23;1.20;;;;;;;15.38;44.34;99568.47;4844490;29;20276;-85
2023/05/03 00:28:05;;;;;;;3.03;1.13;;;;;;;15.29;44.02;99568.25;4843702;29;20270;-85
2023/05/03 00:30:32;;;;;;;6.80;1.47;;;;;;;15.32;44.04;99566.25;4844178;29;20597;-85
2023/05/03 00:32:57;;;;;;;3.40;1.17;;;;;;;15.41;43.58;99558.69;4827675;29;20191;-85
2023/05/03 00:35:26;;;;;;;4.70;1.30;;;;;;;15.33;43.99;99562.66;4843627;29;20647;-85
2023/05/03 00:37:51;;;;;;;3.63;1.63;;;;;;;15.22;44.88;99562.53;4842904;29;20178;-85
2023/05/03 00:40:17;;;;;;;2.80;1.07;;;;;;;15.10;45.53;99562.44;4843392;29;20186;-85
2023/05/03 00:42:45;;;;;;;3.03;1.20;;;;;;;15.03;45.69;99561.16;4843512;29;20638;-85
2023/05/03 00:45:11;;;;;;;4.00;1.23;;;;;;;14.97;46.29;99562.38;4843711;29;20608;-85
2023/05/03 00:47:37;;;;;;;3.03;1.27;;;;;;;14.86;45.93;99551.66;4843737;29;20610;-85
2023/05/03 00:50:03;;;;;;;8.60;1.30;;;;;;;14.88;46.42;99565.63;4843450;29;20262;-85
2023/05/03 00:52:29;;;;;;;7.03;1.30;;;;;;;15.06;45.73;99561.81;4843502;29;20178;-85
2023/05/03 00:54:56;;;;;;;3.53;1.13;;;;;;;15.14;45.84;99570.09;4843478;29;20186;-85
2023/05/03 00:57:25;;;;;;;10.03;1.90;;;;;;;15.22;45.13;99567.81;4827263;29;20200;-85
2023/05/03 00:59:52;;;;;;;7.43;1.93;;;;;;;15.25;45.54;99566.75;4842437;29;20249;-85
2023/05/03 01:02:17;;;;;;;6.27;1.47;;;;;;;15.35;44.93;99563.41;4827128;29;20214;-85
2023/05/03 01:04:43;;;;;;;9.53;2.87;;;;;;;15.62;43.69;99550.19;4825240;29;20623;-85
2023/05/03 01:07:26;;;;;;;10.00;2.67;;;;;;;15.67;43.75;99531.41;4825078;29;20196;-85
2023/05/03 01:10:30;;;;;;;6.53;1.60;;;;;;;15.61;43.58;99515.97;4825893;29;20166;-85
2023/05/03 01:13:02;;;;;;;6.63;1.50;;;;;;;15.44;44.02;99524.97;4821203;29;20640;-85
2023/05/03 01:15:57;;;;;;;3.93;1.17;;;;;;;15.23;43.88;99531.66;4825022;29;20172;-86
2023/05/03 01:18:36;;;;;;;4.37;1.70;;;;;;;15.22;44.18;99529.97;4825212;29;20163;-86
2023/05/03 01:21:04;;;;;;;2.17;1.23;;;;;;;15.28;44.31;99526.91;4830368;29;20185;-86
2023/05/03 01:24:02;;;;;;;4.23;1.37;;;;;;;15.42;44.21;99524.22;4842943;29;20227;-85
2023/05/03 01:26:28;;;;;;;5.30;1.30;;;;;;;15.48;44.25;99536.22;4843169;29;20253;-86
2023/05/03 01:28:55;;;;;;;3.10;1.23;;;;;;;15.56;44.11;99531.28;4842909;29;20635;-86
2023/05/03 01:31:42;;;;;;;4.33;1.07;;;;;;;15.61;44.47;99530.03;4842731;29;20190;-86
2023/05/03 01:34:28;;;;;;;1.83;1.13;;;;;;;15.73;44.40;99525.69;4842832;29;20190;-86
2023/05/03 01:36:58;;;;;;;3.33;1.33;;;;;;;15.63;44.26;99522.84;4842230;29;20562;-86
2023/05/03 01:39:30;;;;;;;8.30;1.73;;;;;;;15.55;44.53;99524.28;4842632;29;20177;-86
2023/05/03 01:41:58;;;;;;;3.20;1.43;;;;;;;15.46;45.01;99522.28;4843291;29;20170;-85
2023/05/03 01:44:25;;;;;;;4.43;1.40;;;;;;;15.43;45.08;99520.66;4842579;29;20204;-86
2023/05/03 01:46:51;;;;;;;3.83;1.70;;;;;;;15.39;45.03;99514.72;4842667;29;20295;-86
2023/05/03 01:49:16;;;;;;;5.87;1.70;;;;;;;15.32;45.31;99521.34;4841984;29;20215;-86
2023/05/03 01:51:42;;;;;;;4.33;1.50;;;;;;;15.23;45.37;99519.31;4842815;29;20177;-86
2023/05/03 01:54:07;;;;;;;3.13;1.40;;;;;;;15.14;45.56;99527.84;4842368;29;20188;-86
2023/05/03 01:56:35;;;;;;;6.23;1.43;;;;;;;15.02;46.00;99523.34;4841867;29;20196;-86
2023/05/03 01:59:03;;;;;;;2.43;1.30;;;;;;;15.08;45.83;99530.88;4842463;29;20181;-86
2023/05/03 02:01:28;;;;;;;3.93;1.63;;;;;;;15.00;46.21;99525.22;4826458;29;20189;-85
2023/05/03 02:03:55;;;;;;;3.37;1.53;;;;;;;14.93;46.95;99526.56;4842183;29;20277;-86
2023/05/03 02:06:24;;;;;;;3.23;1.50;;;;;;;14.85;47.33;99520.09;4842406;29;20189;-85
2023/05/03 02:08:50;;;;;;;3.47;1.57;;;;;;;14.84;47.92;99527.16;4826491;29;20192;-85
2023/05/03 02:11:15;;;;;;;5.07;2.10;;;;;;;14.75;48.03;99517.19;4842853;29;20185;-85
2023/05/03 02:13:42;;;;;;;3.17;1.43;;;;;;;14.58;48.35;99520.03;4842611;29;20183;-85
2023/05/03 02:16:08;;;;;;;5.07;1.93;;;;;;;14.57;48.98;99519.19;4827565;29;20189;-85
2023/05/03 02:18:34;;;;;;;2.53;1.63;;;;;;;14.48;48.68;99522.41;4824199;29;20235;-85
2023/05/03 02:21:00;;;;;;;4.90;1.63;;;;;;;14.47;49.16;99530.41;4824142;29;20722;-85
2023/05/03 02:23:25;;;;;;;2.93;1.63;;;;;;;14.53;49.21;99524.75;4819454;29;20300;-85
2023/05/03 02:25:51;;;;;;;5.00;1.83;;;;;;;14.43;49.24;99523.63;4842196;29;20195;-85
2023/05/03 02:28:16;;;;;;;6.10;2.13;;;;;;;14.33;49.29;99527.78;4842094;29;20193;-85
2023/05/03 02:30:43;;;;;;;2.43;1.40;;;;;;;14.21;49.92;99531.13;4842170;29;20282;-85
2023/05/03 02:33:10;;;;;;;6.23;2.07;;;;;;;14.18;50.08;99530.38;4842048;29;20272;-85
2023/05/03 02:35:35;;;;;;;4.73;2.70;;;;;;;14.12;50.43;99538.66;4842175;29;20187;-85
2023/05/03 02:38:01;;;;;;;4.80;1.70;;;;;;;14.03;50.70;99541.84;4826294;29;20649;-85
2023/05/03 02:40:26;;;;;;;4.50;2.33;;;;;;;13.98;50.81;99538.66;4842121;29;20189;-85
2023/05/03 02:42:51;;;;;;;4.43;1.97;;;;;;;13.98;51.30;99543.06;4841879;29;20687;-85
2023/05/03 02:45:18;;;;;;;7.10;2.30;;;;;;;13.89;51.73;99543.59;4842333;29;20247;-85
2023/05/03 02:47:44;;;;;;;5.50;2.33;;;;;;;13.94;51.33;99537.13;4841879;29;20214;-86
2023/05/03 02:50:10;;;;;;;3.63;1.67;;;;;;;13.98;51.04;99532.53;4842354;29;20168;-85
2023/05/03 02:52:35;;;;;;;4.83;2.37;;;;;;;14.06;51.15;99531.13;4842295;29;20207;-85
2023/05/03 02:55:00;;;;;;;5.60;2.30;;;;;;;14.01;51.46;99542.88;4841990;29;20564;-85
2023/05/03 02:57:27;;;;;;;5.67;1.97;;;;;;;13.94;51.62;99545.03;4825865;29;20196;-85
2023/05/03 02:59:54;;;;;;;7.23;3.13;;;;;;;13.97;51.82;99547.50;4825839;29;20628;-85
2023/05/03 03:02:20;;;;;;;7.53;2.43;;;;;;;13.92;51.80;99549.56;4844186;29;20243;-85
2023/05/03 03:04:46;;;;;;;7.10;2.77;;;;;;;13.97;51.75;99558.03;4845423;29;20192;-85
2023/05/03 03:07:11;;;;;;;8.10;2.90;;;;;;;13.96;52.45;99556.34;4845368;29;20185;-85
2023/05/03 03:09:38;;;;;;;6.93;1.93;;;;;;;14.00;51.61;99559.63;4845863;29;20185;-85
2023/05/03 03:12:04;;;;;;;8.17;3.10;;;;;;;13.92;52.05;99569.78;4845154;29;20187;-86
2023/05/03 03:14:31;;;;;;;8.00;3.00;;;;;;;13.94;51.68;99563.47;4845143;29;20578;-85
2023/05/03 03:16:57;;;;;;;5.70;2.77;;;;;;;14.02;51.57;99563.03;4845257;29;20183;-85
2023/05/03 03:19:24;;;;;;;9.23;3.20;;;;;;;14.01;51.72;99561.34;4845263;29;20180;-85
2023/05/03 03:21:50;;;;;;;10.33;3.07;;;;;;;14.02;51.49;99561.25;4845157;29;20188;-85
2023/05/03 03:24:16;;;;;;;9.13;3.17;;;;;;;14.01;51.55;99570.09;4840803;29;20718;-85
2023/05/03 03:26:41;;;;;;;8.73;2.93;;;;;;;14.12;51.69;99572.91;4810681;29;20275;-85
2023/05/03 03:29:11;;;;;;;5.93;3.13;;;;;;;14.02;51.70;99555.97;4812063;29;20220;-85
2023/05/03 03:31:36;;;;;;;14.17;3.17;;;;;;;13.93;52.41;99559.16;4845461;29;20187;-86
2023/05/03 03:34:02;;;;;;;13.23;3.30;;;;;;;13.87;52.60;99548.97;4845140;29;20214;-85
2023/05/03 03:36:27;;;;;;;7.80;2.57;;;;;;;13.81;53.24;99554.59;4828803;29;20274;-85
2023/05/03 03:38:53;;;;;;;6.23;2.77;;;;;;;13.65;53.68;99553.84;4845130;29;20267;-86
2023/05/03 03:41:18;;;;;;;7.07;2.90;;;;;;;13.62;54.26;99555.78;4845077;29;20187;-86
2023/05/03 03:43:45;;;;;;;8.60;3.07;;;;;;;13.62;53.66;99561.06;4844520;29;20678;-86
2023/05/03 03:46:12;;;;;;;10.07;3.60;;;;;;;13.67;52.73;99565.13;4844785;29;20672;-86
2023/05/03 03:48:37;;;;;;;7.97;3.30;;;;;;;13.68;52.94;99558.91;4828179;29;20653;-87
2023/05/03 03:51:03;;;;;;;5.93;2.73;;;;;;;13.70;53.08;99564.94;4844479;29;20187;-86
2023/05/03 03:53:28;;;;;;;8.93;2.70;;;;;;;13.66;52.83;99578.38;4844824;29;20657;-85
2023/05/03 03:55:55;;;;;;;11.57;3.83;;;;;;;13.29;54.34;99592.78;4844607;29;20223;-85
2023/05/03 03:58:20;;;;;;;8.37;2.93;;;;;;;13.20;55.33;99623.13;4844777;29;20224;-85
2023/05/03 04:00:47;;;;;;;13.23;4.10;;;;;;;13.34;55.59;99617.06;4844609;29;20185;-85
2023/05/03 04:03:13;;;;;;;9.17;3.50;;;;;;;13.37;56.09;99636.19;4844310;29;20215;-86
2023/05/03 04:05:39;;;;;;;7.33;3.47;;;;;;;13.37;58.36;99651.13;4844290;29;20196;-86
2023/05/03 04:08:05;;;;;;;9.37;3.50;;;;;;;13.52;58.08;99664.28;4828034;29;20204;-86
2023/05/03 04:10:31;;;;;;;9.07;3.23;;;;;;;13.75;58.23;99665.66;4844567;29;20623;-86
2023/05/03 04:12:57;;;;;;;8.43;3.23;;;;;;;13.94;58.12;99663.63;4844402;29;20621;-87
2023/05/03 04:15:24;;;;;;;8.23;3.40;;;;;;;13.97;57.95;99665.25;4844460;29;20184;-87
2023/05/03 04:17:52;;;;;;;8.20;3.27;;;;;;;14.07;58.91;99664.63;4828020;29;20208;-88
2023/05/03 04:20:18;;;;;;;8.57;3.60;;;;;;;14.11;60.92;99666.16;4835735;29;20221;-87
2023/05/03 04:25:37;;;;;;;6.63;3.10;;;;;;;14.24;62.07;99676.81;4819609;29;20660;-89
2023/05/03 04:28:05;;;;;;;10.27;2.73;;;;;;;14.33;61.55;99670.19;4826331;29;20186;-89
2023/05/03 04:30:34;;;;;;;6.87;3.43;;;;;;;14.39;61.95;99680.34;4825017;29;20193;-88
2023/05/03 04:33:02;;;;;;;5.37;3.10;;;;;;;14.48;62.28;99677.19;4824574;29;20280;-87
2023/05/03 04:35:29;;;;;;;7.70;3.63;;;;;;;14.52;63.05;99676.03;4836403;29;20189;-88
2023/05/03 04:37:56;;;;;;;10.13;3.73;;;;;;;14.60;62.69;99671.16;4844312;29;20192;-88
2023/05/03 04:40:22;;;;;;;6.00;2.80;;;;;;;14.67;62.62;99661.97;4825525;29;20311;-87
2023/05/03 04:42:49;;;;;;;9.07;3.07;;;;;;;14.66;63.36;99654.97;4825298;29;20293;-87
2023/05/03 04:45:17;;;;;;;6.70;3.50;;;;;;;14.63;63.60;99648.09;4809359;29;20186;-87
2023/05/03 04:47:43;;;;;;;6.63;3.00;;;;;;;14.64;63.58;99654.22;4825215;29;20193;-87
2023/05/03 04:50:10;;;;;;;4.77;2.80;;;;;;;14.71;63.12;99655.53;4816349;29;20549;-88
2023/05/03 04:52:35;;;;;;;6.90;3.20;;;;;;;14.71;64.14;99650.25;4843780;29;20185;-87
2023/05/03 04:55:02;;;;;;;6.07;3.07;;;;;;;14.74;64.49;99660.63;4843752;29;20219;-87
2023/05/03 04:57:27;;;;;;;9.00;3.17;;;;;;;14.82;64.21;99652.25;4842486;29;20277;-87
2023/05/03 04:59:54;;;;;;;9.27;3.10;;;;;;;14.87;64.48;99656.28;4827293;29;20276;-87
2023/05/03 05:02:21;;;;;;;9.20;3.80;;;;;;;14.88;64.69;99668.56;4832578;29;20735;-87
2023/05/03 05:04:47;;;;;;;11.17;5.10;;;;;;;14.83;65.53;99680.34;4825639;29;20201;-87
2023/05/03 05:07:14;;;;;;;12.50;5.53;;;;;;;14.79;65.75;99682.31;4825430;29;20609;-88
2023/05/03 05:09:39;;;;;;;11.37;3.97;;;;;;;14.75;65.94;99684.28;4829255;29;20193;-87
2023/05/03 05:12:05;;;;;;;7.63;3.67;;;;;;;14.80;65.64;99681.38;4843214;29;20773;-87
2023/05/03 05:14:32;;;;;;;8.87;3.60;;;;;;;14.82;65.84;99679.47;4843141;29;20182;-87
2023/05/03 05:16:58;;;;;;;7.73;4.30;;;;;;;14.89;65.16;99685.22;4843412;29;20181;-88
2023/05/03 05:19:24;;;;;;;7.67;3.73;;;;;;;14.85;66.14;99694.28;4843206;29;20196;-87
2023/05/03 05:21:50;;;;;;;4.20;2.77;;;;;;;14.85;65.51;99694.28;4843288;29;20604;-87
2023/05/03 05:24:17;;;;;;;15.57;3.30;;;;;;;14.87;65.13;99684.47;4839660;29;20252;-87
2023/05/03 05:26:43;;;;;;;8.30;3.47;;;;;;;14.90;64.94;99700.13;4809660;29;20197;-87
2023/05/03 05:29:09;;;;;;;7.47;3.43;;;;;;;14.87;64.82;99693.25;4823655;29;20251;-87
2023/05/03 05:31:36;;;;;;;10.87;3.53;;;;;;;14.94;64.77;99694.56;4818194;29;20189;-88
2023/05/03 05:34:02;;;;;;;9.80;3.10;;;;;;;14.98;64.41;99696.09;4842892;29;20185;-87
2023/05/03 05:36:30;;;;;;;5.50;3.27;;;;;;;14.95;65.27;99683.06;4812125;29;20659;-87
2023/05/03 05:38:56;;;;;;;6.43;2.90;;;;;;;15.10;64.16;99674.19;4842478;29;20185;-87
2023/05/03 05:41:22;;;;;;;7.97;3.53;;;;;;;15.08;64.18;99684.00;4830310;29;20197;-87
2023/05/03 05:43:49;;;;;;;5.33;2.90;;;;;;;14.87;67.10;99701.16;4842361;29;20280;-87
2023/05/03 05:46:16;;;;;;;7.50;3.47;;;;;;;14.82;66.30;99707.66;4828360;29;20263;-87
2023/05/03 05:48:42;;;;;;;4.97;2.77;;;;;;;14.87;65.31;99708.22;4838625;29;20272;-87
2023/05/03 05:51:08;;;;;;;5.53;2.93;;;;;;;14.96;65.08;99713.81;4830805;29;20202;-86
2023/05/03 05:53:36;;;;;;;6.93;3.03;;;;;;;14.95;66.42;99724.44;4824959;29;20353;-86
2023/05/03 05:56:02;;;;;;;9.03;3.00;;;;;;;14.93;67.48;99726.34;4832964;29;20189;-87
2023/05/03 05:58:29;;;;;;;4.87;2.07;;;;;;;15.11;67.39;99697.03;4824386;29;20523;-88
2023/05/03 06:01:02;;;;;;;5.83;2.57;;;;;;;15.45;66.48;99684.31;4824673;29;20213;-88
2023/05/03 06:03:30;;;;;;;5.00;2.50;;;;;;;15.82;64.79;99678.41;4834868;29;20206;-88
2023/05/03 06:05:57;;;;;;;9.10;2.90;;;;;;;16.13;63.70;99666.66;4829534;29;20664;-87
2023/05/03 06:08:24;;;;;;;5.33;2.50;;;;;;;16.37;61.48;99665.00;4842380;29;20192;-89
2023/05/03 06:10:52;;;;;;;7.17;2.10;;;;;;;16.46;59.89;99651.13;4826350;29;20193;-88
2023/05/03 06:13:18;;;;;;;3.10;1.90;;;;;;;16.57;59.62;99652.13;4826308;29;20187;-87
2023/05/03 06:15:46;;;;;;;4.30;2.13;;;;;;;16.43;58.37;99659.31;4842856;29;20182;-87
2023/05/03 06:18:13;;;;;;;5.43;2.53;;;;;;;16.31;58.14;99668.06;4825762;29;20711;-87
2023/05/03 06:20:39;;;;;;;6.93;3.07;;;;;;;16.23;58.42;99670.38;4824042;29;20197;-87
2023/05/03 06:23:06;;;;;;;6.83;2.60;;;;;;;16.18;59.25;99675.13;4824611;29;20219;-87
2023/05/03 06:25:35;;;;;;;5.17;2.27;;;;;;;16.15;60.48;99680.59;4828731;29;20211;-87
2023/05/03 06:28:02;;;;;;;6.03;3.47;;;;;;;15.99;59.94;99676.34;4842143;29;20648;-87
2023/05/03 06:30:27;;;;;;;9.63;3.10;;;;;;;15.93;60.95;99675.91;4836629;29;20198;-86
2023/05/03 06:32:53;;;;;;;9.00;4.07;;;;;;;15.86;60.18;99680.75;4823800;29;20295;-87
2023/05/03 06:35:20;;;;;;;6.87;4.27;;;;;;;15.84;59.56;99687.06;4808687;29;20632;-87
2023/05/03 06:37:46;;;;;;;9.13;4.73;;;;;;;15.77;59.06;99696.38;4845764;29;20266;-87
2023/05/03 06:40:12;;;;;;;8.13;4.53;;;;;;;15.81;59.84;99697.84;4845564;29;20627;-87
2023/05/03 06:42:37;;;;;;;8.07;3.97;;;;;;;15.84;59.96;99693.22;4845367;29;20263;-86
2023/05/03 06:45:03;;;;;;;8.53;4.13;;;;;;;15.93;60.96;99691.78;4845605;29;20182;-87
2023/05/03 06:47:29;;;;;;;11.30;4.90;;;;;;;15.75;62.25;99706.16;4845600;29;20190;-86
2023/05/03 06:49:55;;;;;;;8.87;4.57;;;;;;;15.96;62.62;99704.78;4845330;29;20608;-86
2023/05/03 06:52:21;;;;;;;8.73;4.60;;;;;;;16.13;61.60;99698.38;4829034;29;20593;-86
2023/05/03 06:54:46;;;;;;;11.27;4.80;;;;;;;16.17;60.84;99679.56;4845400;29;20199;-87
2023/05/03 06:57:12;;;;;;;11.33;4.73;;;;;;;16.27;62.70;99663.94;4823571;29;20203;-87
2023/05/03 06:59:37;;;;;;;10.60;4.83;;;;;;;16.44;62.66;99664.47;4826934;29;20193;-87
2023/05/03 07:02:04;;;;;;;8.70;4.50;;;;;;;16.70;62.47;99677.75;4827144;29;20310;-87
2023/05/03 07:04:31;;;;;;;9.77;4.60;;;;;;;17.10;63.16;99666.06;4836740;29;20268;-88
2023/05/03 07:06:58;;;;;;;11.60;5.03;;;;;;;17.49;62.54;99649.97;4845387;29;20655;-86
2023/05/03 07:09:25;;;;;;;15.30;5.07;;;;;;;17.66;60.72;99643.47;4842688;29;20190;-87
2023/05/03 07:11:50;;;;;;;7.47;3.77;;;;;;;18.00;60.28;99641.81;4826897;29;20182;-87
2023/05/03 07:14:16;;;;;;;6.43;3.50;;;;;;;18.51;59.65;99632.56;4841200;29;20299;-87
2023/05/03 07:16:43;;;;;;;6.33;3.37;;;;;;;18.86;57.54;99625.38;4826788;29;20245;-87
2023/05/03 07:19:10;;;;;;;3.90;2.07;;;;;;;19.06;50.51;99636.22;4825489;29;20565;-88
2023/05/03 07:21:40;;;;;;;6.73;2.20;;;;;;;19.27;52.66;99639.81;4826764;29;20270;-88
2023/05/03 07:24:07;;;;;;;6.13;2.77;;;;;;;19.62;52.81;99637.84;4826896;29;20342;-88
2023/05/03 07:26:36;;;;;;;6.03;2.27;;;;;;;19.72;46.68;99633.47;4840908;29;20190;-88
2023/05/03 07:29:04;;;;;;;4.00;1.97;;;;;;;19.81;49.57;99632.69;4833965;29;20200;-88
2023/05/03 07:31:31;;;;;;;4.83;1.90;;;;;;;19.87;48.25;99631.34;4810904;29;20206;-88
2023/05/03 07:34:01;;;;;;;5.27;2.27;;;;;;;19.83;49.16;99652.06;4827059;29;20567;-88
2023/05/03 07:36:29;;;;;;;3.40;2.00;;;;;;;20.05;48.76;99640.47;4811578;29;20307;-88
2023/05/03 07:39:16;;;;;;;3.50;1.60;;;;;;;20.18;49.02;99618.00;4825648;29;20301;-88
2023/05/03 07:41:44;;;;;;;10.70;2.20;;;;;;;20.25;46.85;99617.53;4829598;29;20192;-88
2023/05/03 07:44:14;;;;;;;8.87;1.97;;;;;;;20.45;45.11;99627.34;4828376;29;20246;-88
2023/05/03 07:46:49;;;;;;;8.27;1.90;;;;;;;20.67;46.51;99619.19;4823623;29;20197;-89
2023/05/03 07:49:26;;;;;;;4.83;2.20;;;;;;;20.88;44.62;99612.00;4835514;29;20231;-89
2023/05/03 07:51:58;;;;;;;5.33;2.43;;;;;;;20.96;44.25;99590.88;4833247;29;20193;-88
2023/05/03 07:54:51;;;;;;;4.73;2.20;;;;;;;20.67;44.77;99580.09;4826779;29;20604;-89
2023/05/03 07:57:18;;;;;;;5.07;2.37;;;;;;;20.68;46.03;99570.25;4804264;29;20608;-89
2023/05/03 08:00:04;;;;;;;4.87;2.27;;;;;;;20.75;45.84;99576.75;4829342;29;20604;-88
2023/05/03 08:02:34;;;;;;;5.87;2.80;;;;;;;19.71;45.33;99599.84;4844889;29;20306;-89
2023/05/03 08:05:01;;;;;;;6.10;2.77;;;;;;;19.56;48.98;99606.44;4843423;29;20264;-87
2023/05/03 08:07:33;;;;;;;4.13;2.33;;;;;;;19.92;49.72;99606.06;4844247;29;20264;-89
2023/05/03 08:10:01;;;;;;;8.43;2.60;;;;;;;20.45;49.46;99595.38;4828593;29;20202;-88
2023/05/03 08:12:29;;;;;;;6.73;3.20;;;;;;;20.69;49.50;99587.94;4844476;29;20182;-88
2023/05/03 08:15:21;;;;;;;7.70;3.73;;;;;;;20.65;48.13;99598.00;4844967;29;20534;-88
2023/05/03 08:17:48;;;;;;;5.63;3.23;;;;;;;20.99;48.80;99600.41;4836709;29;20217;-87
2023/05/03 08:20:14;;;;;;;7.20;3.47;;;;;;;21.17;48.96;99609.47;4813249;29;20196;-88
2023/05/03 08:22:40;;;;;;;6.77;3.60;;;;;;;21.16;46.70;99599.78;4839823;29;20280;-88
2023/05/03 08:25:06;;;;;;;4.93;2.43;;;;;;;21.58;45.89;99603.09;4815642;29;20660;-88
2023/05/03 08:27:32;;;;;;;5.67;2.93;;;;;;;21.06;43.62;99614.88;4837432;29;20189;-86
2023/05/03 08:30:00;;;;;;;4.80;2.40;;;;;;;20.84;44.17;99626.56;4825286;29;20277;-87
2023/05/03 08:32:29;;;;;;;4.37;2.63;;;;;;;21.34;45.56;99623.00;4829273;29;20204;-87
2023/05/03 08:34:55;;;;;;;7.07;3.30;;;;;;;21.77;41.62;99613.78;4825589;29;20201;-87
2023/05/03 08:37:21;;;;;;;4.17;2.40;;;;;;;21.93;41.78;99603.44;4842779;29;20563;-88
2023/05/03 08:39:47;;;;;;;9.47;2.73;;;;;;;22.16;42.56;99594.16;4831971;29;20181;-88
2023/05/03 08:42:14;;;;;;;6.70;2.73;;;;;;;22.48;42.08;99589.28;4831093;29;20216;-87
2023/05/03 08:44:49;;;;;;;6.00;2.90;;;;;;;22.71;40.60;99586.31;4831125;29;20232;-88
2023/05/03 08:47:17;;;;;;;6.40;3.00;;;;;;;22.72;40.18;99585.31;4840423;29;20193;-88
2023/05/03 08:49:43;;;;;;;4.07;2.27;;;;;;;22.69;41.42;99596.31;4828186;29;20691;-88
2023/05/03 08:52:10;;;;;;;5.03;2.27;;;;;;;22.83;40.56;99598.47;4824983;29;20212;-88
2023/05/03 08:54:37;;;;;;;5.07;2.53;;;;;;;22.86;40.47;99601.72;4828791;29;20253;-88
2023/05/03 08:57:10;;;;;;;4.93;2.30;;;;;;;22.86;41.05;99598.19;4809417;29;20197;-88
2023/05/03 08:59:59;;;;;;;6.47;2.87;;;;;;;22.94;41.35;99574.25;4834388;29;20307;-88
2023/05/03 09:02:27;;;;;;;5.87;2.57;;;;;;;22.95;40.68;99576.78;4839645;29;20189;-88
2023/05/03 09:04:55;;;;;;;5.23;2.60;;;;;;;22.85;41.79;99575.97;4825195;29;20202;-88
2023/05/03 09:07:21;;;;;;;6.03;2.60;;;;;;;22.83;41.22;99582.44;4840209;29;20212;-88
2023/05/03 09:09:46;;;;;;;5.13;2.67;;;;;;;22.26;42.03;99580.75;4810631;29;20296;-87
2023/05/03 09:12:33;;;;;;;3.77;2.30;;;;;;;22.41;40.76;99587.34;4824965;29;20285;-88
2023/05/03 09:14:58;;;;;;;6.57;2.53;;;;;;;22.33;41.04;99581.88;4839344;29;20218;-87
2023/05/03 09:17:24;;;;;;;5.23;2.70;;;;;;;22.16;41.19;99590.63;4818203;29;20198;-88
2023/05/03 09:19:53;;;;;;;5.30;2.23;;;;;;;22.07;41.65;99583.47;4830874;29;20281;-88
2023/05/03 09:22:19;;;;;;;6.57;2.70;;;;;;;21.77;41.54;99587.97;4808500;29;20186;-88
2023/05/03 09:24:51;;;;;;;6.07;2.20;;;;;;;22.15;42.05;99587.09;4824660;29;20213;-88
2023/05/03 09:27:24;;;;;;;5.77;2.27;;;;;;;22.23;40.90;99571.22;4824753;29;20189;-88
2023/05/03 09:29:51;;;;;;;4.43;1.97;;;;;;;22.09;39.76;99576.16;4836445;29;20425;-87
2023/05/03 09:32:18;;;;;;;7.10;2.30;;;;;;;21.99;38.94;99565.47;4829497;29;20267;-87
2023/05/03 09:34:44;;;;;;;2.77;1.50;;;;;;;21.85;39.67;99568.56;4824381;29;20182;-87
2023/05/03 09:37:15;;;;;;;5.47;1.80;;;;;;;21.86;38.58;99565.78;4824342;29;20727;-87
2023/05/03 09:40:09;;;;;;;3.97;1.77;;;;;;;21.98;38.99;99564.66;4828214;29;20204;-87
2023/05/03 09:42:34;;;;;;;5.37;1.83;;;;;;;22.09;40.15;99560.97;4824193;29;20249;-87
2023/05/03 09:45:00;;;;;;;4.47;1.67;;;;;;;22.26;39.45;99570.94;4837003;29;20651;-87
2023/05/03 09:47:28;;;;;;;4.20;1.50;;;;;;;22.48;39.29;99562.56;4833295;29;20198;-87
2023/05/03 09:49:55;;;;;;;3.33;1.50;;;;;;;22.73;39.12;99578.97;4824246;29;20237;-87
2023/05/03 09:52:22;;;;;;;3.77;1.77;;;;;;;22.88;39.29;99573.00;4824518;29;20182;-87
2023/05/03 09:54:59;;;;;;;2.93;1.50;;;;;;;22.56;38.95;99565.34;4828752;29;20643;-87
2023/05/03 09:57:26;;;;;;;3.10;1.30;;;;;;;21.96;39.11;99581.78;4842617;29;20211;-87
2023/05/03 09:59:54;;;;;;;2.70;1.40;;;;;;;21.55;38.46;99577.53;4819511;29;20197;-87
2023/05/03 10:02:21;;;;;;;6.50;1.37;;;;;;;21.78;38.43;99578.09;4824333;29;20201;-86
2023/05/03 10:04:57;;;;;;;3.10;1.30;;;;;;;21.49;40.27;99588.75;4823997;29;20664;-86
2023/05/03 10:07:27;;;;;;;2.03;1.10;;;;;;;21.54;38.78;99591.84;4827390;29;20192;-86
2023/05/03 10:09:56;;;;;;;5.17;1.50;;;;;;;21.16;38.93;99591.78;4833219;29;20196;-87
2023/05/03 10:12:25;;;;;;;2.80;1.10;;;;;;;20.71;39.69;99584.16;4826283;29;20186;-87
2023/05/03 10:14:54;;;;;;;4.03;1.50;;;;;;;20.80;40.94;99580.72;4839204;29;20268;-87
2023/05/03 10:17:33;;;;;;;4.47;1.37;;;;;;;20.67;40.10;99573.91;4830735;29;20280;-87
2023/05/03 10:20:36;;;;;;;1.83;1.07;;;;;;;21.01;40.39;99575.31;4830966;29;20226;-87
2023/05/03 10:23:09;;;;;;;5.50;1.20;;;;;;;21.03;40.05;99570.69;4822734;29;20596;-86
2023/05/03 10:25:38;;;;;;;5.07;1.53;;;;;;;20.81;41.46;99581.53;4833300;29;20192;-87
2023/05/03 10:28:08;;;;;;;6.70;2.10;;;;;;;20.68;41.80;99586.25;4815992;29;20193;-87
2023/05/03 10:30:38;;;;;;;3.37;1.40;;;;;;;20.65;42.06;99584.69;4824662;29;20256;-86
2023/05/03 10:33:13;;;;;;;5.23;1.30;;;;;;;21.01;40.82;99585.13;4824329;29;20181;-87
2023/05/03 10:35:40;;;;;;;3.40;1.60;;;;;;;21.00;42.70;99592.28;4832153;29;20193;-86
2023/05/03 10:38:20;;;;;;;7.30;1.40;;;;;;;21.09;43.56;99591.50;4826063;29;20284;-87
2023/05/03 10:40:45;;;;;;;3.23;1.50;;;;;;;21.04;44.76;99588.34;4833252;29;20194;-86
2023/05/03 10:43:32;;;;;;;6.03;1.80;;;;;;;21.26;44.90;99588.16;4806653;29;20266;-87
2023/05/03 10:45:58;;;;;;;4.77;2.20;;;;;;;21.08;47.79;99592.47;4821910;29;20182;-87
2023/05/03 10:48:24;;;;;;;5.53;2.10;;;;;;;21.11;48.15;99586.88;4821776;29;20182;-87
2023/05/03 10:50:51;;;;;;;6.90;1.70;;;;;;;20.79;45.15;99588.81;4821889;29;20676;-86
2023/05/03 10:53:37;;;;;;;4.40;1.90;;;;;;;20.88;46.44;99590.69;4821902;29;20265;-87
2023/05/03 10:56:07;;;;;;;3.57;1.70;;;;;;;20.99;45.58;99589.75;4805683;29;20197;-87
2023/05/03 10:58:43;;;;;;;3.03;1.47;;;;;;;21.21;45.52;99574.41;4821308;29;20197;-87
2023/05/03 11:01:12;;;;;;;5.03;1.60;;;;;;;21.50;44.60;99561.13;4823759;29;20601;-87
2023/05/03 11:03:37;;;;;;;3.83;1.57;;;;;;;21.86;44.19;99548.91;4807781;29;20669;-87
2023/05/03 11:06:04;;;;;;;4.03;1.67;;;;;;;22.11;43.12;99521.63;4838354;29;20189;-88
2023/05/03 11:08:36;;;;;;;8.17;1.70;;;;;;;22.07;43.84;99506.88;4841892;29;20181;-88
2023/05/03 11:11:04;;;;;;;4.83;2.03;;;;;;;21.62;45.92;99533.31;4841893;29;20609;-88
2023/05/03 11:13:29;;;;;;;5.30;1.93;;;;;;;21.53;46.49;99546.66;4841887;29;20245;-88
2023/05/03 11:15:55;;;;;;;3.77;1.83;;;;;;;21.53;46.51;99551.97;4826434;29;20185;-87
2023/05/03 11:18:21;;;;;;;5.20;1.83;;;;;;;21.60;47.06;99553.09;4825571;29;20193;-88
2023/05/03 11:20:47;;;;;;;2.70;1.57;;;;;;;21.67;46.65;99533.72;4841813;29;20193;-88
2023/05/03 11:23:16;;;;;;;4.70;1.60;;;;;;;21.77;47.02;99536.41;4843566;29;20209;-87
2023/05/03 11:25:42;;;;;;;5.50;1.87;;;;;;;21.33;46.90;99538.63;4844753;29;20193;-87
2023/05/03 11:28:07;;;;;;;3.27;1.57;;;;;;;20.99;46.39;99555.91;4844891;29;20185;-87
2023/05/03 11:30:34;;;;;;;6.57;1.57;;;;;;;20.89;44.95;99557.72;4845078;29;20200;-87
2023/05/03 11:33:00;;;;;;;5.53;1.90;;;;;;;20.44;47.58;99551.09;4828660;29;20389;-87
2023/05/03 11:35:28;;;;;;;3.20;1.70;;;;;;;20.56;48.65;99553.53;4844763;29;20197;-87
2023/05/03 11:37:55;;;;;;;4.87;2.47;;;;;;;20.47;48.56;99551.66;4844867;29;20193;-87
2023/05/03 11:40:20;;;;;;;3.20;1.90;;;;;;;19.97;49.91;99547.97;4844961;29;20189;-87